Detall de PIREP

Printer-friendly versionPDF version

[2012/08/08 22:05:00]
Flight IATA:CT3129
Pilot Number:026
Company ICAO:CAT
Aircraft Type:DC85/A
PAX:0
Aircraft Registration:CARGO
Departing Airport: LEZG
Destination Airport: LEVC
Alternate Airport:LEAL
Online: VATSIM
Route:PONEN/N0330F180 R870 SEROX/N0390F190 A34 SAURA
Flight Level:F150
No Slew and time accel
No pause
Crash detect
Detect pilot in Cockpit between each 30 and 45 minutes
22:05 Zero fuel Weight: 187230 Lbs, Fuel Weight: 20965 Lbs
22:05 VATSIM:LEZG 082130Z 09007KT CAVOK 28/08 Q1018
22:05 VATSIM:LEVC 082130Z 17003KT 140V200 9999 FEW040 26/20 Q1020 NOSIG
22:05 VOICE CATALONIAN / IATA CT3129 INTERHUB ROUTE
22:09 Parking Brakes off
22:17 Take-off
22:17 Take off Weight: 207089 Lbs
22:17 Wind: 093º @ 007 Knots Heading: 119º
22:17 POS N41º 39´ 24´´ W001º 00´ 42´´
22:17 Gear Up: 157 Knots
22:17 Flaps:2 at 157 Knots
22:17 Flaps:1 at 150 Knots
22:18 Flaps:0 at 173 Knots
22:31 TOC
22:31 Fuel Weight: 16218 Lb
22:32 Wind:101º@009 Knots Heading: 201º Ground Speed: 388 Knots Altitude 15137 ft
22:40 TOD
22:40 Fuel Weight: 14206 Lb
22:47 Wind:127º@009 Knots Heading: 279º Ground Speed: 274 Knots Altitude 7864 ft
22:53 Gear Down: 235 Knots
22:53 Flaps:1 at 235 Knots
22:54 Flaps:2 at 184 Knots
22:54 Flaps:3 at 181 Knots
22:55 Flaps:4 at 152 Knots
22:55 Flaps:5 at 137 Knots
22:56 TouchDown:Rate -243 ft/min Speed: 122 Knots
22:56 VATSIM:LEVC 082230Z VRB02KT 9999 FEW040 26/20 Q1020 NOSIG
22:56 Land
22:56 Wind:082º@004 Knots
22:56 Heading: 115º
22:56 Flight Duration: 00:39
22:56 Landing Weight: 200373 Lbs
22:56 POS N39º 29´ 25´´ W000º 29´ 04´´
22:58 Parking brakes on
22:58 Block to Block Duration: 00:49
22:58 Final Fuel: 12976 Lbls
22:58 Spent Fuel: 7989 Lbls
22:58 Flight Length: 117 NM
22:58 TOD Land Length: 70 NM

Exportar CSV

Powered by Drupal - Modified by Danger4k